createdAt,value
2023-04-12T00:00:24.726Z,8.86
2023-04-12T00:03:14.273Z,8.87
2023-04-12T00:05:47.165Z,8.87
2023-04-12T00:08:16.882Z,8.87
2023-04-12T00:10:46.328Z,8.87
2023-04-12T00:13:16.478Z,8.87
2023-04-12T00:15:46.647Z,8.88
2023-04-12T00:18:16.197Z,8.88
2023-04-12T00:20:46.872Z,8.88
2023-04-12T00:23:17.552Z,8.89
2023-04-12T00:25:47.324Z,8.88
2023-04-12T00:28:16.746Z,8.87
2023-04-12T00:30:47.548Z,8.88
2023-04-12T00:33:16.983Z,8.88
2023-04-12T00:35:46.660Z,8.88
2023-04-12T00:38:18.905Z,8.88
2023-04-12T00:40:48.650Z,8.88
2023-04-12T00:43:19.154Z,8.88
2023-04-12T00:45:52.508Z,8.88
2023-04-12T00:48:24.437Z,8.88
2023-04-12T00:50:58.532Z,8.88
2023-04-12T00:53:29.003Z,8.89
2023-04-12T00:55:58.875Z,8.88
2023-04-12T00:58:28.379Z,8.88
2023-04-12T01:00:57.828Z,8.89
2023-04-12T01:03:31.156Z,8.88
2023-04-12T01:06:30.103Z,8.88
2023-04-12T01:09:30.485Z,8.87
2023-04-12T01:12:25.123Z,8.86
2023-04-12T01:15:14.601Z,8.86
2023-04-12T01:18:24.508Z,8.86
2023-04-12T01:21:07.801Z,8.84
2023-04-12T01:23:54.202Z,8.83
2023-04-12T01:26:42.262Z,8.81
2023-04-12T01:29:18.443Z,8.79
2023-04-12T01:32:06.088Z,8.78
2023-04-12T01:34:37.860Z,8.76
2023-04-12T01:37:10.148Z,8.75
2023-04-12T01:39:41.165Z,8.75
2023-04-12T01:42:10.547Z,8.74
2023-04-12T01:44:42.965Z,8.74
2023-04-12T01:47:13.939Z,8.75
2023-04-12T01:50:11.562Z,8.75
2023-04-12T01:52:50.053Z,8.75
2023-04-12T01:55:24.154Z,8.74
2023-04-12T01:57:54.301Z,8.73
2023-04-12T02:00:25.584Z,8.73
2023-04-12T02:02:57.868Z,8.72
2023-04-12T02:05:29.760Z,8.72
2023-04-12T02:07:59.205Z,8.72
2023-04-12T02:10:33.574Z,8.71
2023-04-12T02:13:04.328Z,8.70
2023-04-12T02:15:39.618Z,8.71
2023-04-12T02:18:11.964Z,8.71
2023-04-12T02:20:41.755Z,8.70
2023-04-12T02:23:11.168Z,8.69
2023-04-12T02:25:41.634Z,8.68
2023-04-12T02:28:11.265Z,8.68
2023-04-12T02:30:41.958Z,8.68
2023-04-12T02:33:12.026Z,8.69
2023-04-12T02:35:42.579Z,8.69
2023-04-12T02:38:14.063Z,8.70
2023-04-12T02:40:46.750Z,8.71
2023-04-12T02:43:18.004Z,8.70
2023-04-12T02:45:50.303Z,8.71
2023-04-12T02:48:19.695Z,8.72
2023-04-12T02:50:50.818Z,8.72
2023-04-12T02:53:25.200Z,8.72
2023-04-12T02:56:10.469Z,8.72
2023-04-12T02:58:40.207Z,8.71
2023-04-12T03:01:13.250Z,8.70
2023-04-12T03:03:59.290Z,8.68
2023-04-12T03:06:52.552Z,8.67
2023-04-12T03:09:27.372Z,8.65
2023-04-12T03:11:57.600Z,8.64
2023-04-12T03:14:29.639Z,8.62
2023-04-12T03:16:59.446Z,8.61
2023-04-12T03:19:30.640Z,8.61
2023-04-12T03:22:00.152Z,8.61
2023-04-12T03:24:34.288Z,8.61
2023-04-12T03:27:04.711Z,8.61
2023-04-12T03:29:35.890Z,8.62
2023-04-12T03:32:06.728Z,8.62
2023-04-12T03:34:36.821Z,8.62
2023-04-12T03:37:15.030Z,8.62
2023-04-12T03:39:48.282Z,8.63
2023-04-12T03:42:32.158Z,8.63
2023-04-12T03:45:07.076Z,8.62
2023-04-12T03:47:39.171Z,8.62
2023-04-12T03:50:12.428Z,8.62
2023-04-12T03:52:48.122Z,8.63
2023-04-12T03:55:18.533Z,8.63
2023-04-12T03:57:51.005Z,8.62
2023-04-12T04:00:20.918Z,8.62
2023-04-12T04:03:06.459Z,8.61
2023-04-12T04:05:42.255Z,8.62
2023-04-12T04:08:11.928Z,8.63
2023-04-12T04:11:01.355Z,8.64
2023-04-12T04:13:35.238Z,8.65
2023-04-12T04:16:10.414Z,8.66
2023-04-12T04:18:40.825Z,8.68
2023-04-12T04:21:11.923Z,8.69
2023-04-12T04:23:45.138Z,8.72
2023-04-12T04:26:16.032Z,8.75
2023-04-12T04:29:04.895Z,8.77
2023-04-12T04:31:38.853Z,8.79
2023-04-12T04:34:12.799Z,8.81
2023-04-12T04:36:45.606Z,8.83
2023-04-12T04:39:16.543Z,8.85
2023-04-12T04:41:46.861Z,8.86
2023-04-12T04:44:26.024Z,8.88
2023-04-12T04:47:00.969Z,8.90
2023-04-12T04:49:30.405Z,8.92
2023-04-12T04:52:05.581Z,8.92
2023-04-12T04:54:35.198Z,8.94
2023-04-12T04:57:08.080Z,8.95
2023-04-12T04:59:38.411Z,8.97
2023-04-12T05:02:17.267Z,9.01
2023-04-12T05:04:47.263Z,9.03
2023-04-12T05:07:19.990Z,9.05
2023-04-12T05:09:50.467Z,9.08
2023-04-12T05:12:20.962Z,9.11
2023-04-12T05:15:04.799Z,9.13
2023-04-12T05:17:40.547Z,9.16
2023-04-12T05:20:13.738Z,9.18
2023-04-12T05:22:43.750Z,9.21
2023-04-12T05:25:17.521Z,9.24
2023-04-12T05:27:53.240Z,9.27
2023-04-12T05:30:22.956Z,9.27
2023-04-12T05:32:52.990Z,9.29
2023-04-12T05:35:24.096Z,9.30
2023-04-12T05:37:57.886Z,9.31
2023-04-12T05:40:27.360Z,9.32
2023-04-12T05:42:58.025Z,9.33
2023-04-12T05:45:27.914Z,9.35
2023-04-12T05:47:57.643Z,9.35
2023-04-12T05:50:27.416Z,9.36
2023-04-12T05:52:57.041Z,9.37
2023-04-12T05:55:30.537Z,9.38
2023-04-12T05:58:00.185Z,9.37
2023-04-12T06:00:30.161Z,9.38
2023-04-12T06:02:59.891Z,9.40
2023-04-12T06:05:32.021Z,9.44
2023-04-12T06:08:06.175Z,9.50
2023-04-12T06:10:36.235Z,9.55
2023-04-12T06:13:06.308Z,9.59
2023-04-12T06:15:36.730Z,9.60
2023-04-12T06:18:08.364Z,9.60
2023-04-12T06:20:40.830Z,9.60
2023-04-12T06:23:10.307Z,9.62
2023-04-12T06:25:39.818Z,9.65
2023-04-12T06:28:09.337Z,9.68
2023-04-12T06:30:45.145Z,9.71
2023-04-12T06:33:17.237Z,9.75
2023-04-12T06:35:47.981Z,9.76
2023-04-12T06:38:19.399Z,9.75
2023-04-12T06:40:49.170Z,9.74
2023-04-12T06:43:22.954Z,9.76
2023-04-12T06:45:52.426Z,9.78
2023-04-12T06:48:22.696Z,9.81
2023-04-12T07:28:28.342Z,10.13
2023-04-12T07:30:57.087Z,10.04
2023-04-12T07:33:26.235Z,10.01
2023-04-12T08:45:23.229Z,9.74
2023-04-12T08:47:52.326Z,9.73
2023-04-12T08:50:23.675Z,9.72
2023-04-12T08:52:55.058Z,9.73
2023-04-12T08:55:23.655Z,9.72
2023-04-12T08:57:58.069Z,9.71
2023-04-12T09:00:27.316Z,9.71
2023-04-12T09:02:55.482Z,9.70
2023-04-12T09:05:30.077Z,9.70
2023-04-12T09:07:58.276Z,9.70
2023-04-12T09:10:35.964Z,9.71
2023-04-12T09:13:05.369Z,9.71
2023-04-12T09:15:34.593Z,9.70
2023-04-12T09:18:08.847Z,9.71
2023-04-12T09:20:39.118Z,9.72
2023-04-12T09:23:25.884Z,9.72
2023-04-12T09:25:54.010Z,9.73
2023-04-12T09:28:26.887Z,9.72
2023-04-12T09:31:00.425Z,9.72
2023-04-12T09:33:39.566Z,9.72
2023-04-12T09:36:16.441Z,9.72
2023-04-12T09:39:14.487Z,9.74
2023-04-12T09:41:43.603Z,9.77
2023-04-12T09:44:36.341Z,9.79
2023-04-12T09:47:06.651Z,9.80
2023-04-12T09:49:46.581Z,9.81
2023-04-12T09:52:16.360Z,9.81
2023-04-12T09:54:48.722Z,9.82
2023-04-12T09:57:23.107Z,9.81
2023-04-12T09:59:53.024Z,9.79
2023-04-12T10:02:27.248Z,9.77
2023-04-12T10:04:56.202Z,9.79
2023-04-12T10:07:25.487Z,9.80
2023-04-12T10:09:55.071Z,9.79
2023-04-12T10:12:24.141Z,9.78
2023-04-12T10:14:54.976Z,9.77
2023-04-12T10:17:25.799Z,9.77
2023-04-12T10:19:59.332Z,9.75
2023-04-12T10:22:30.349Z,9.75
2023-04-12T10:25:10.504Z,9.73
2023-04-12T10:27:47.701Z,9.73
2023-04-12T10:30:32.755Z,9.76
2023-04-12T10:33:12.349Z,9.79
2023-04-12T10:36:03.299Z,9.85
2023-04-12T10:38:47.419Z,9.92
2023-04-12T10:41:21.647Z,10.00
2023-04-12T10:43:51.579Z,10.07
2023-04-12T10:47:06.641Z,10.13
2023-04-12T10:49:36.092Z,10.17
2023-04-12T10:52:12.510Z,10.20
2023-04-12T10:54:40.681Z,10.26
2023-04-12T10:57:44.891Z,10.33
2023-04-12T11:00:14.243Z,10.41
2023-04-12T11:03:22.644Z,10.46
2023-04-12T11:06:20.077Z,10.55
2023-04-12T11:09:46.432Z,10.64
2023-04-12T11:12:29.099Z,10.74
2023-04-12T11:15:03.654Z,10.83
2023-04-12T11:17:57.724Z,10.95
2023-04-12T11:20:27.739Z,11.02
2023-04-12T11:22:59.256Z,11.05
2023-04-12T11:37:24.593Z,11.74
2023-04-12T11:39:58.747Z,12.09
2023-04-12T11:42:29.659Z,12.26
2023-04-12T11:45:03.932Z,12.24
2023-04-12T11:47:47.045Z,12.07
2023-04-12T11:50:31.214Z,11.87
2023-04-12T11:53:18.111Z,11.70
2023-04-12T11:55:51.097Z,11.59
2023-04-12T11:58:24.289Z,11.48
2023-04-12T12:00:54.750Z,11.38
2023-04-12T12:03:24.846Z,11.27
2023-04-12T12:05:55.633Z,11.16
2023-04-12T12:08:26.746Z,11.10
2023-04-12T12:11:07.289Z,11.05
2023-04-12T12:13:50.257Z,10.99
2023-04-12T12:16:31.283Z,10.96
2023-04-12T12:19:05.687Z,10.98
2023-04-12T12:21:37.460Z,11.00
2023-04-12T12:24:07.070Z,10.98
2023-04-12T12:26:37.351Z,10.93
2023-04-12T12:29:09.574Z,10.87
2023-04-12T12:31:48.116Z,10.84
2023-04-12T12:34:19.861Z,10.90
2023-04-12T12:37:01.004Z,10.99
2023-04-12T12:39:31.471Z,11.10
2023-04-12T12:42:01.084Z,11.15
2023-04-12T12:44:30.557Z,11.14
2023-04-12T12:47:10.286Z,11.07
2023-04-12T12:49:43.831Z,10.99
2023-04-12T12:52:14.640Z,10.94
2023-04-12T12:54:46.103Z,10.87
2023-04-12T12:57:15.616Z,10.82
2023-04-12T12:59:45.164Z,10.76
2023-04-12T13:02:15.856Z,10.72
2023-04-12T13:04:45.572Z,10.69
2023-04-12T13:07:15.216Z,10.71
2023-04-12T13:09:46.654Z,10.72
2023-04-12T13:12:17.256Z,10.73
2023-04-12T13:14:46.585Z,10.74
2023-04-12T13:17:16.308Z,10.74
2023-04-12T13:19:49.407Z,10.75
2023-04-12T13:22:18.869Z,10.79
2023-04-12T13:24:48.278Z,10.82
2023-04-12T13:27:17.881Z,10.87
2023-04-12T13:29:47.255Z,10.95
2023-04-12T13:32:17.902Z,11.02
2023-04-12T13:34:47.519Z,11.15
2023-04-12T13:37:17.041Z,11.26
2023-04-12T13:39:46.675Z,11.37
2023-04-12T13:42:16.310Z,11.43
2023-04-12T13:44:46.296Z,11.46
2023-04-12T13:47:55.366Z,11.48
2023-04-12T13:50:24.789Z,11.51
2023-04-12T13:52:54.108Z,11.57
2023-04-12T13:55:23.502Z,11.66
2023-04-12T13:57:52.927Z,11.72
2023-04-12T14:00:29.324Z,11.74
2023-04-12T14:02:59.376Z,11.71
2023-04-12T14:08:16.230Z,11.67
2023-04-12T14:10:46.325Z,11.64
2023-04-12T14:13:16.167Z,11.65
2023-04-12T14:15:51.498Z,11.69
2023-04-12T14:18:24.869Z,11.75
2023-04-12T14:20:55.057Z,11.88
2023-04-12T14:23:27.921Z,12.06
2023-04-12T14:25:57.616Z,12.12
2023-04-12T14:28:36.104Z,12.15
2023-04-12T14:31:11.064Z,12.15
2023-04-12T14:33:46.032Z,12.11
2023-04-12T14:36:15.907Z,12.07
2023-04-12T14:38:45.675Z,12.05
2023-04-12T14:41:15.711Z,12.06
2023-04-12T14:43:46.320Z,12.11
2023-04-12T14:46:18.397Z,12.16
2023-04-12T14:48:48.990Z,12.22
2023-04-12T14:51:19.910Z,12.24
2023-04-12T14:53:51.222Z,12.22
2023-04-12T14:56:25.626Z,12.20
2023-04-12T14:58:57.581Z,12.16
2023-04-12T15:01:29.412Z,12.11
2023-04-12T15:04:01.710Z,12.06
2023-04-12T15:06:35.493Z,12.00
2023-04-12T15:09:08.187Z,11.94
2023-04-12T15:11:38.484Z,11.89
2023-04-12T15:14:09.120Z,11.86
2023-04-12T15:16:42.487Z,11.83
2023-04-12T15:19:18.826Z,11.79
2023-04-12T15:21:55.594Z,11.78
2023-04-12T15:24:25.846Z,11.76
2023-04-12T15:26:55.519Z,11.76
2023-04-12T15:29:32.639Z,11.74
2023-04-12T15:32:02.485Z,11.74
2023-04-12T15:34:34.095Z,11.74
2023-04-12T15:37:03.537Z,11.76
2023-04-12T15:39:40.241Z,11.80
2023-04-12T15:42:16.672Z,11.87
2023-04-12T15:44:46.814Z,11.88
2023-04-12T15:47:16.236Z,11.87
2023-04-12T15:49:48.018Z,11.86
2023-04-12T15:52:17.481Z,11.83
2023-04-12T15:54:46.909Z,11.78
2023-04-12T15:57:16.820Z,11.73
2023-04-12T15:59:46.434Z,11.69
2023-04-12T16:02:16.059Z,11.63
2023-04-12T16:04:46.205Z,11.58
2023-04-12T16:07:18.686Z,11.55
2023-04-12T16:09:50.439Z,11.51
2023-04-12T16:12:19.953Z,11.47
2023-04-12T16:14:51.919Z,11.44
2023-04-12T16:17:23.153Z,11.41
2023-04-12T16:19:53.225Z,11.37
2023-04-12T16:22:25.300Z,11.33
2023-04-12T16:24:55.244Z,11.29
2023-04-12T16:27:26.593Z,11.25
2023-04-12T16:29:58.083Z,11.21
2023-04-12T16:32:28.183Z,11.18
2023-04-12T16:34:58.796Z,11.16
2023-04-12T16:37:32.256Z,11.13
2023-04-12T16:40:02.315Z,11.11
2023-04-12T16:42:32.432Z,11.08
2023-04-12T16:45:02.065Z,11.06
2023-04-12T16:47:36.229Z,11.07
2023-04-12T16:50:10.649Z,11.06
2023-04-12T16:52:41.665Z,11.04
2023-04-12T16:55:17.133Z,11.01
2023-04-12T16:57:47.886Z,10.99
2023-04-12T17:00:20.797Z,10.95
2023-04-12T17:02:53.271Z,10.90
2023-04-12T17:05:25.152Z,10.85
2023-04-12T17:07:56.049Z,10.82
2023-04-12T17:10:28.389Z,10.79
2023-04-12T17:12:59.569Z,10.77
2023-04-12T17:15:30.088Z,10.75
2023-04-12T17:18:07.523Z,10.74
2023-04-12T17:20:38.427Z,10.71
2023-04-12T17:23:12.033Z,10.70
2023-04-12T17:25:41.858Z,10.69
2023-04-12T17:28:11.696Z,10.69
2023-04-12T17:30:43.686Z,10.68
2023-04-12T17:33:13.466Z,10.67
2023-04-12T17:35:43.535Z,10.65
2023-04-12T17:38:14.496Z,10.64
2023-04-12T17:40:43.959Z,10.63
2023-04-12T17:43:13.566Z,10.63
2023-04-12T17:45:43.189Z,10.63
2023-04-12T17:48:15.126Z,10.62
2023-04-12T17:50:46.125Z,10.62
2023-04-12T17:53:15.627Z,10.61
2023-04-12T17:55:46.221Z,10.60
2023-04-12T17:58:15.662Z,10.61
2023-04-12T18:00:45.216Z,10.60
2023-04-12T18:03:15.691Z,10.60
2023-04-12T18:05:46.498Z,10.61
2023-04-12T18:08:17.238Z,10.61
2023-04-12T18:10:46.736Z,10.61
2023-04-12T18:13:16.427Z,10.61
2023-04-12T18:15:46.233Z,10.60
2023-04-12T18:18:15.898Z,10.60
2023-04-12T18:20:48.812Z,10.60
2023-04-12T18:23:19.892Z,10.60
2023-04-12T18:25:49.757Z,10.59
2023-04-12T18:28:19.720Z,10.59
2023-04-12T18:30:49.836Z,10.59
2023-04-12T18:33:20.261Z,10.59
2023-04-12T18:35:51.524Z,10.58
2023-04-12T18:38:22.727Z,10.58
2023-04-12T18:40:52.413Z,10.58
2023-04-12T18:43:22.333Z,10.58
2023-04-12T18:45:53.453Z,10.57
2023-04-12T18:48:25.086Z,10.56
2023-04-12T18:50:54.825Z,10.55
2023-04-12T18:53:24.237Z,10.54
2023-04-12T18:56:07.016Z,10.54
2023-04-12T18:58:53.908Z,10.53
2023-04-12T19:01:25.419Z,10.52
2023-04-12T19:03:55.238Z,10.51
2023-04-12T19:06:24.762Z,10.50
2023-04-12T19:08:54.202Z,10.49
2023-04-12T19:11:24.247Z,10.49
2023-04-12T19:13:56.666Z,10.48
2023-04-12T19:16:26.532Z,10.47
2023-04-12T19:18:58.055Z,10.46
2023-04-12T19:21:35.156Z,10.46
2023-04-12T19:24:05.631Z,10.45
2023-04-12T19:26:38.761Z,10.44
2023-04-12T19:29:09.336Z,10.44
2023-04-12T19:31:40.790Z,10.44
2023-04-12T19:34:11.908Z,10.43
2023-04-12T19:36:42.590Z,10.42
2023-04-12T19:39:12.112Z,10.41
2023-04-12T19:41:48.590Z,10.41
2023-04-12T19:44:20.726Z,10.40
2023-04-12T19:46:51.846Z,10.38
2023-04-12T19:49:22.401Z,10.36
2023-04-12T19:51:53.821Z,10.34
2023-04-12T19:54:24.017Z,10.33
2023-04-12T19:56:54.295Z,10.31
2023-04-12T19:59:25.692Z,10.30
2023-04-12T20:01:56.409Z,10.28
2023-04-12T20:04:26.787Z,10.26
2023-04-12T20:06:56.287Z,10.24
2023-04-12T20:09:26.405Z,10.23
2023-04-12T20:11:57.488Z,10.22
2023-04-12T20:14:27.277Z,10.20
2023-04-12T20:16:58.221Z,10.17
2023-04-12T20:19:28.566Z,10.16
2023-04-12T20:22:02.173Z,10.13
2023-04-12T20:24:34.570Z,10.12
2023-04-12T20:27:04.144Z,10.11
2023-04-12T20:29:35.041Z,10.09
2023-04-12T20:32:05.294Z,10.08
2023-04-12T20:34:37.579Z,10.04
2023-04-12T20:37:06.982Z,10.03
2023-04-12T20:39:38.229Z,10.01
2023-04-12T20:42:10.030Z,9.99
2023-04-12T20:44:39.375Z,9.97
2023-04-12T20:47:09.312Z,9.96
2023-04-12T20:49:39.878Z,9.96
2023-04-12T20:52:09.770Z,9.95
2023-04-12T20:54:39.264Z,9.95
2023-04-12T20:57:09.689Z,9.95
2023-04-12T20:59:39.374Z,9.94
2023-04-12T21:02:09.929Z,9.93
2023-04-12T21:04:41.476Z,9.91
2023-04-12T21:07:11.604Z,9.90
2023-04-12T21:09:42.765Z,9.89
2023-04-12T21:12:13.337Z,9.87
2023-04-12T21:14:45.433Z,9.84
2023-04-12T21:17:14.858Z,9.81
2023-04-12T21:19:45.050Z,9.78
2023-04-12T21:22:14.415Z,9.73
2023-04-12T21:24:44.699Z,9.69
2023-04-12T21:27:15.112Z,9.66
2023-04-12T21:29:47.353Z,9.60
2023-04-12T21:32:17.920Z,9.55
2023-04-12T21:34:48.495Z,9.49
2023-04-12T21:37:18.112Z,9.44
2023-04-12T21:39:47.663Z,9.39
2023-04-12T21:42:17.252Z,9.35
2023-04-12T21:44:46.662Z,9.31
2023-04-12T21:47:16.040Z,9.26
2023-04-12T21:49:45.508Z,9.22
2023-04-12T21:52:14.909Z,9.17
2023-04-12T21:54:45.513Z,9.12
2023-04-12T21:57:16.408Z,9.06
2023-04-12T21:59:46.140Z,9.02
2023-04-12T22:02:15.923Z,8.96
2023-04-12T22:04:46.997Z,8.91
2023-04-12T22:07:17.918Z,8.86
2023-04-12T22:09:47.563Z,8.82
2023-04-12T22:12:18.326Z,8.78
2023-04-12T22:14:47.640Z,8.73
2023-04-12T22:17:19.548Z,8.69
2023-04-12T22:19:49.180Z,8.66
2023-04-12T22:22:18.516Z,8.62
2023-04-12T22:24:49.671Z,8.58
2023-04-12T22:27:19.196Z,8.54
2023-04-12T22:29:50.259Z,8.51
2023-04-12T22:32:20.480Z,8.47
2023-04-12T22:34:57.939Z,8.42
2023-04-12T22:37:35.031Z,8.39
2023-04-12T22:40:17.368Z,8.37
2023-04-12T22:42:48.487Z,8.35
2023-04-12T22:45:18.215Z,8.32
2023-04-12T22:47:47.843Z,8.28
2023-04-12T22:50:17.755Z,8.22
2023-04-12T22:52:50.099Z,8.16
2023-04-12T22:55:22.065Z,8.07
2023-04-12T22:57:51.540Z,8.00
2023-04-12T23:00:33.546Z,7.94
2023-04-12T23:03:04.471Z,7.86
2023-04-12T23:05:34.505Z,7.81
2023-04-12T23:08:05.130Z,7.74
2023-04-12T23:10:34.776Z,7.69
2023-04-12T23:13:05.476Z,7.64
2023-04-12T23:15:35.588Z,7.59
2023-04-12T23:18:08.940Z,7.53
2023-04-12T23:20:38.938Z,7.48
2023-04-12T23:23:08.185Z,7.41
2023-04-12T23:25:41.427Z,7.34
2023-04-12T23:28:14.313Z,7.27
2023-04-12T23:30:49.870Z,7.23
2023-04-12T23:33:22.059Z,7.19
2023-04-12T23:35:56.299Z,7.15
2023-04-12T23:38:32.885Z,7.12
2023-04-12T23:41:06.642Z,7.09
2023-04-12T23:43:38.126Z,7.06
2023-04-12T23:46:10.690Z,7.03
2023-04-12T23:48:42.674Z,7.00
2023-04-12T23:51:12.400Z,6.98
2023-04-12T23:53:43.071Z,6.97
2023-04-12T23:56:13.288Z,6.96
2023-04-12T23:58:42.978Z,6.96
